Downloads

-JavaCPC -demo -emu -j-cpc_ani -tools 0-9 A B C D E F G H I J K L M N O P Q R S T U V W X Y Z ZZZ_UNK roms
FILEDATESIZEDLs
KTris by Richard Wilson (PD).zip 2017-04-21 16:14 2 Kb1
Kaiser (G) (19xx).zip 2017-04-21 16:13 91 Kb1
Kane & Nebulus & Renaud - Marche a l'Ombre.zip 2017-04-21 16:13 95 Kb0
Kane (UK) (1986).zip 2017-04-21 16:13 28 Kb0
Kane (UK) (1986) [a1].zip 2017-04-21 16:13 80 Kb3
Kane (UK) (1986) [a2].zip 2017-04-21 16:13 38 Kb1
Kane (UK) (1986) [t1].zip 2017-04-21 16:13 38 Kb0
Karateka (F) (1986).zip 2017-04-21 16:13 50 Kb1
Karateka (F) (1986) [f1].zip 2017-04-21 16:13 50 Kb2
Karateka (F) (1986) [t1].zip 2017-04-21 16:13 50 Kb1
Karateka (F) (1990).zip 2017-04-21 16:13 49 Kb1
Karateka (F) (1990) [t1].zip 2017-04-21 16:13 49 Kb0
Karateka (F).dsk 2017-04-21 16:13 192 Kb5
Karl's Treasure Hunt (UK) (1984).zip 2017-04-21 16:13 11 Kb0
Karl's Treasure Hunt (UK) (1984) [a1].zip 2017-04-21 16:13 84 Kb2
Karl's Treasure Hunt (UK) (1984) [a2].zip 2017-04-21 16:13 11 Kb1
Karnov (E) - Disk 1A.dsk 2017-04-21 16:13 214 Kb1
Karnov (E) - Disk 1B.dsk 2017-04-21 16:13 214 Kb2
Karnov (UK) (1988) (Disk 1 of 2).zip 2017-04-21 16:13 73 Kb2
Karnov (UK) (1988) (Disk 1 of 2) [a1].zip 2017-04-21 16:13 56 Kb0
Karnov (UK) (1988) (Disk 1 of 2) [t1].zip 2017-04-21 16:13 159 Kb3
Karnov (UK) (1988) (Disk 1 of 2) [t2].zip 2017-04-21 16:13 73 Kb2
Karnov (UK) (1988) (Disk 2 of 2).zip 2017-04-21 16:13 62 Kb2
Karnov (UK) (1988) (Disk 2 of 2) [a1].zip 2017-04-21 16:13 105 Kb2
Karnov (UK) (1988) (Disk 2 of 2) [t2].zip 2017-04-21 16:13 62 Kb2
Kat Trap (E).dsk 2017-04-21 16:13 91 Kb1
Kat Trap (UK) (1987).zip 2017-04-21 16:13 34 Kb1
Keep Yourself Alive (F) (1987).zip 2017-04-21 16:13 19 Kb3
Kenny Dalglish Soccer Manager (E).cdt 2017-04-21 16:13 57 Kb2
Kenny Dalglish Soccer Manager (UK) (1989).zip 2017-04-21 16:13 25 Kb1
Kenny Dalglish Soccer Match (UK) (1990).zip 2017-04-21 16:13 29 Kb1
Kentilla (UK) (1985).zip 2017-04-21 16:13 23 Kb1
Kentilla (UK) (1985) [a1].zip 2017-04-21 16:13 30 Kb1
Kentucky Racing (E).cdt 2017-04-21 16:13 45 Kb2
Kentucky Racing (UK) (1990).zip 2017-04-21 16:13 24 Kb1
Kentucky Racing (UK) (1990) [f1].zip 2017-04-21 16:13 24 Kb2
Kessia (F) (19xx).zip 2017-04-21 16:13 72 Kb1
Kettle (E).dsk 2017-04-21 16:13 193 Kb0
Kettle (UK) (1986).zip 2017-04-21 16:13 21 Kb1
Kevin Thacker's CPC Guide (UK) (19xx) (PD) (Disk 1 of 2).zip 2017-04-21 16:13 47 Kb0
Kevin Thacker's CPC Guide (UK) (19xx) (PD) (Disk 2 of 2).zip 2017-04-21 16:13 41 Kb0
Key Factor, The (UK) (1985).zip 2017-04-21 16:13 13 Kb2
Kick Off (UK,F,G,S,I) (1990).zip 2017-04-21 16:13 27 Kb0
Kick Off (UK,F,G,S,I) (1990) [a1].zip 2017-04-21 16:13 131 Kb0
Kick Off (UK,F,G,S,I) (1990) [a2].zip 2017-04-21 16:13 31 Kb1
Kick Off 2 (E) - Disk 1A.dsk 2017-04-21 16:13 178 Kb0
Kick Off 2 (E) - Disk 1B.dsk 2017-04-21 16:13 178 Kb1
Kick Off 2 (F) (1990).zip 2017-04-21 16:13 68 Kb1
Kick Off 2 (F) (1990) [a1].zip 2017-04-21 16:13 68 Kb2
Kikstart II (UK) (1988).zip 2017-04-21 16:13 24 Kb0
Kikstart II (UK) (1988) [a1].zip 2017-04-21 16:13 23 Kb1
Killapede (UK) (1986).zip 2017-04-21 16:13 26 Kb0
Killapede (UK) (1986) [a1].zip 2017-04-21 16:13 26 Kb0
Killapede (UK) (1986) [a2].zip 2017-04-21 16:13 32 Kb0
Killapede (UK) (1986) [a3].zip 2017-04-21 16:13 30 Kb0
Killed Until Dead (UK) (1987) (Disk 1 of 2).zip 2017-04-21 16:13 50 Kb0
Killed Until Dead (UK) (1987) (Disk 2 of 2).zip 2017-04-21 16:13 62 Kb0
Killer Ball (UK) (1991).zip 2017-04-21 16:14 103 Kb0
Killer Ball (UK) (1991) [a1].zip 2017-04-21 16:13 103 Kb1
Killer Ball (UK) (1991) [a2].zip 2017-04-21 16:13 76 Kb1
Killer Ball (UK) (1991) [a3].zip 2017-04-21 16:13 96 Kb0
Killer Cobra (E).cdt 2017-04-21 16:14 49 Kb2
Killer Cobra (UK) (1987).zip 2017-04-21 16:14 27 Kb1
Killer Cobra (UK) (1987) [a1].zip 2017-04-21 16:14 27 Kb0
Killer Cobra (UK) (1987) [a2].zip 2017-04-21 16:14 31 Kb1
Killer Gorilla & Knight Lore & Laserwarp & Molecule Man & Zaxx (F).zip 2017-04-21 16:14 82 Kb0
Killer Gorilla (UK) (1984).zip 2017-04-21 16:14 19 Kb1
Killer Gorilla (UK) (1984) [a1].zip 2017-04-21 16:14 19 Kb2
Killer Gorilla (UK) (1984) [a2].zip 2017-04-21 16:14 15 Kb0
Killer Gorilla (UK) (1984) [a3].zip 2017-04-21 16:14 18 Kb2
Killer Gorilla (UK) (1984) [b1].zip 2017-04-21 16:14 19 Kb1
Killer Gorilla (UK) (1984) [b2].zip 2017-04-21 16:14 19 Kb3
Killer Ring (UK) (1987).zip 2017-04-21 16:14 16 Kb1
Killer Ring (UK) (1987) [a1].zip 2017-04-21 16:14 16 Kb2
Kiloroid (UK) (19xx).zip 2017-04-21 16:14 2 Kb1
Kim (F) (1986).zip 2017-04-21 16:14 9 Kb2
Kinetic (UK) (1987).zip 2017-04-21 16:14 35 Kb1
Kinetic (UK) (1987) [a1].zip 2017-04-21 16:14 36 Kb2
Kinetic (UK) (1987) [a2].zip 2017-04-21 16:14 35 Kb1
Kinetik (E).dsk 2017-04-21 16:14 195 Kb3
Kingdom of Hamil (UK) (1987).zip 2017-04-21 16:14 57 Kb1
Kingdoms (UK) (1985).zip 2017-04-21 16:14 5 Kb0
Kit de Telechargement - Telecharge Amstrad CPC (F).dsk 2017-04-21 16:14 217 Kb1
Kit de Telechargement pour Amstrad CPC (F).dsk 2017-04-21 16:14 191 Kb1
Klax & Meynaumede (F) & Nervous Break Down (F) & Skweek.zip 2017-04-21 16:14 97 Kb1
Klax (E).dsk 2017-04-21 16:14 172 Kb1
Klax (UK) (1990) (CPM).zip 2017-04-21 16:14 44 Kb0
Klax (UK) (1990) (CPM) [a1].zip 2017-04-21 16:14 44 Kb4
Klax (UK) (1990) (CPM Version).zip 2017-04-21 16:14 43 Kb0
Klax (UK) (1990) (CPM Version) [a1].zip 2017-04-21 16:14 43 Kb1
Klax (UK) (1990) (Cart).zip 2017-04-21 16:14 41 Kb0
Klax (UK) (1990).zip 2017-04-21 16:14 42 Kb1
Klax (UK) (1990) [a1].zip 2017-04-21 16:14 42 Kb2
Klax (UK) (1990) [h1].zip 2017-04-21 16:14 52 Kb0
Klax (UK) (1990) [h2].zip 2017-04-21 16:14 54 Kb1
Knaves and thou Prisoners (UK) (19xx).zip 2017-04-21 16:14 8 Kb3
Knight Force (F) (1989) (Disk 1 of 2).zip 2017-04-21 16:14 54 Kb1
Knight Force (F) (1989) (Disk 1 of 2) [t1].zip 2017-04-21 16:14 55 Kb1
Knight Force (F) (1989) (Disk 1 of 2) [t2] & Power Drift.zip 2017-04-21 16:14 108 Kb0
Knight Force (F) (1989) (Disk 1 of 2) [t2].zip 2017-04-21 16:14 75 Kb1
Knight Force (F) (1989) (Disk 2 of 2).zip 2017-04-21 16:14 76 Kb1
Knight Force (F) - Disk 1A.dsk 2017-04-21 16:14 456 Kb1
Knight Force (F) - Disk 1B.dsk 2017-04-21 16:14 627 Kb3
Knight Games (E) - Side A.cdt 2017-04-21 16:14 166 Kb1
Knight Games (E) - Side B.cdt 2017-04-21 16:14 142 Kb0
Knight Games (UK) (1986) (Disk 1 of 2).zip 2017-04-21 16:14 88 Kb0
Knight Games (UK) (1986) (Disk 1 of 2) [a1].zip 2017-04-21 16:14 83 Kb1
Knight Games (UK) (1986) (Disk 1 of 2) [a2].zip 2017-04-21 16:14 83 Kb2
Knight Games (UK) (1986) (Disk 1 of 2) [a3].zip 2017-04-21 16:14 103 Kb1
Knight Games (UK) (1986) (Disk 2 of 2).zip 2017-04-21 16:14 94 Kb1
Knight Games (UK) (1986) (Disk 2 of 2) [a1].zip 2017-04-21 16:14 76 Kb1
Knight Games (UK) (1986) (Disk 2 of 2) [a2].zip 2017-04-21 16:14 79 Kb0
Knight Games (UK) (1986) (Disk 2 of 2) [a3].zip 2017-04-21 16:14 109 Kb1
Knight Games (UK) (1986) [f1][t1].zip 2017-04-21 16:14 179 Kb1
Knight Lore (E).cdt 2017-04-21 16:14 42 Kb0
Knight Lore (UK) (1984).zip 2017-04-21 16:14 25 Kb0
Knight Lore (UK) (1984) [a1].zip 2017-04-21 16:14 25 Kb2
Knight Lore (UK) (1984) [a2].zip 2017-04-21 16:14 25 Kb0
Knight Moves (F) (19xx) (Disk 1 of 2).zip 2017-04-21 16:14 60 Kb0
Knight Moves (F) (19xx) (Disk 2 of 2).zip 2017-04-21 16:14 83 Kb1
Knight Orc (E) - Disk 1A.dsk 2017-04-21 16:14 194 Kb0
Knight Orc (E) - Disk 1B.dsk 2017-04-21 16:14 199 Kb2
Knight Orc (UK) (1987) (Disk 1 of 2).zip 2017-04-21 16:14 119 Kb1
Knight Orc (UK) (1987) (Disk 2 of 2).zip 2017-04-21 16:14 110 Kb0
Knight Rider (E).cdt 2017-04-21 16:14 45 Kb1
Knight Rider (UK) (1986).zip 2017-04-21 16:14 20 Kb0
Knight Rider (UK) (1986) [h1].zip 2017-04-21 16:14 32 Kb0
Knight Rider (UK) (1986) [h2].zip 2017-04-21 16:14 21 Kb2
Knight Tyme (E).cdt 2017-04-21 16:14 57 Kb1
Knight Tyme (UK) (1986).zip 2017-04-21 16:14 31 Kb2
Knight Tyme (UK) (1986) [a1].zip 2017-04-21 16:14 31 Kb3
Knight Tyme (UK) (1986) [t1].zip 2017-04-21 16:14 31 Kb0
Knightmare (E).dsk 2017-04-21 16:14 213 Kb1
Knightmare (UK) (1987).zip 2017-04-21 16:14 29 Kb1
Knightmare (UK) (1987) [a1].zip 2017-04-21 16:14 30 Kb1
Knightmare (UK) (1987) [a2].zip 2017-04-21 16:14 30 Kb0
Knightmare (UK) (1987) [t1].zip 2017-04-21 16:14 33 Kb0
Know (G).dsk 2017-04-21 16:14 192 Kb3
Kobayashi Naru (UK) (19xx).zip 2017-04-21 16:14 31 Kb1
Kobayashi Naru (UK) (1987).zip 2017-04-21 16:14 31 Kb2
Kobayashi Naru (UK) (1987) [a1].zip 2017-04-21 16:14 31 Kb2
Kobayashi Naru (UK) (1987) [a2].zip 2017-04-21 16:14 48 Kb0
Kokotoni Wilf (UK) (19xx).zip 2017-04-21 16:14 137 Kb0
Kokotoni Wilf (UK) (19xx) [a1].zip 2017-04-21 16:14 35 Kb0
Kokotoni Wilf (UK) (19xx) [f1][t1].zip 2017-04-21 16:14 37 Kb1
Konami's Golf (UK) (1986).zip 2017-04-21 16:14 24 Kb0
Konami's Golf (UK) (1986) [a1].zip 2017-04-21 16:14 24 Kb0
Konami's Golf (UK) (1986) [a2].zip 2017-04-21 16:14 26 Kb0
Konami Coin-op Hits (UK) (19xx) (Disk 1 of 2).zip 2017-04-21 16:14 50 Kb1
Konami Coin-op Hits (UK) (19xx) (Disk 1 of 2) [a1].zip 2017-04-21 16:14 50 Kb1
Konami Coin-op Hits (UK) (19xx) (Disk 2 of 2).zip 2017-04-21 16:14 65 Kb1
Konami Coin-op Hits (UK) (19xx) (Disk 2 of 2) [a1].zip 2017-04-21 16:14 65 Kb2
Konami Coin-op Hits (UK) (19xx) (Disk 2 of 2) [a2].zip 2017-04-21 16:14 65 Kb0
Kong Strikes Back (UK) (1985).zip 2017-04-21 16:14 21 Kb1
Kong Strikes Back (UK) (1985) [a1].zip 2017-04-21 16:14 21 Kb0
Kong Strikes Back (UK) (1985) [a2].zip 2017-04-21 16:14 23 Kb2
Koronis Rift (E).dsk 2017-04-21 16:14 186 Kb0
Koronis Rift (UK) (1987).zip 2017-04-21 16:14 57 Kb1
Krakout (E).cdt 2017-04-21 16:14 64 Kb1
Krakout (E).dsk 2017-04-21 16:14 171 Kb0
Krakout (UK) (1987).zip 2017-04-21 16:14 31 Kb1
Krakout (UK) (1987) [h1].zip 2017-04-21 16:14 34 Kb1
Kristal (F).dsk 2017-04-21 16:14 191 Kb0
Kristal (UK) (1985).zip 2017-04-21 16:14 16 Kb0
Kristax (UK) (1989).zip 2017-04-21 16:14 9 Kb0
Krypton Factor (UK) (1987) (Disk 1 of 2).zip 2017-04-21 16:14 52 Kb1
Krypton Factor (UK) (1987) (Disk 1 of 2) [a1].zip 2017-04-21 16:14 47 Kb1
Krypton Factor (UK) (1987) (Disk 2 of 2).zip 2017-04-21 16:14 5 Kb0
Krypton Factor (UK) (1987) (Disk 2 of 2) [a1].zip 2017-04-21 16:14 21 Kb4
Kung-Fu (UK) (1986).zip 2017-04-21 16:14 19 Kb1
Kung-Fu Master (E).dsk 2017-04-21 16:14 191 Kb0
Kung-Fu Master (UK) (1986).zip 2017-04-21 16:14 28 Kb1
Kung-Fu Master (UK) (1986) [h1].zip 2017-04-21 16:14 22 Kb2
Kwah (UK) (1987).zip 2017-04-21 16:14 36 Kb0
Kwik Snax (E).cdt 2017-04-21 16:14 65 Kb3
Kwik Snax (UK) (1990).zip 2017-04-21 16:14 22 Kb0
Kwik Snax (UK) (1990) [f1].zip 2017-04-21 16:14 33 Kb1
Kwik Snax (UK) (1990) [h1].zip 2017-04-21 16:14 41 Kb0
Kwik Snax (UK) (1990) [t1].zip 2017-04-21 16:14 33 Kb0
kobayashi Naru (E).cdt 2017-04-21 16:14 74 Kb0
180 Files
-JavaCPC -demo -emu -j-cpc_ani -tools 0-9 A B C D E F G H I J K L M N O P Q R S T U V W X Y Z ZZZ_UNK roms